sensor_id;sensor_type;location;lat;lon;timestamp;temperature;humidity
26049;DHT22;13822;51.568;5.086;2022-11-04T06:32:12;9.00;99.90
26049;DHT22;13822;51.568;5.086;2022-11-04T06:37:15;9.00;99.90
26049;DHT22;13822;51.568;5.086;2022-11-04T06:42:17;9.00;99.90
26049;DHT22;13822;51.568;5.086;2022-11-04T06:47:19;9.00;99.90
26049;DHT22;13822;51.568;5.086;2022-11-04T06:52:25;9.00;99.90
26049;DHT22;13822;51.568;5.086;2022-11-04T06:57:27;9.00;99.90
26049;DHT22;13822;51.568;5.086;2022-11-04T07:02:29;9.00;99.90
26049;DHT22;13822;51.568;5.086;2022-11-04T07:07:31;9.00;99.90
26049;DHT22;13822;51.568;5.086;2022-11-04T07:12:33;9.00;99.90
26049;DHT22;13822;51.568;5.086;2022-11-04T07:17:35;9.10;99.90
26049;DHT22;13822;51.568;5.086;2022-11-04T07:22:37;9.10;99.90
26049;DHT22;13822;51.568;5.086;2022-11-04T07:27:39;9.20;99.90
26049;DHT22;13822;51.568;5.086;2022-11-04T07:32:41;9.20;99.90
26049;DHT22;13822;51.568;5.086;2022-11-04T07:37:43;9.20;99.90
26049;DHT22;13822;51.568;5.086;2022-11-04T07:42:45;9.20;99.90
26049;DHT22;13822;51.568;5.086;2022-11-04T07:47:47;9.20;99.90
26049;DHT22;13822;51.568;5.086;2022-11-04T07:52:49;9.20;99.90
26049;DHT22;13822;51.568;5.086;2022-11-04T07:57:53;9.20;99.90
26049;DHT22;13822;51.568;5.086;2022-11-04T08:02:55;9.20;99.90
26049;DHT22;13822;51.568;5.086;2022-11-04T08:07:57;9.30;99.90
26049;DHT22;13822;51.568;5.086;2022-11-04T08:12:59;9.30;99.90
26049;DHT22;13822;51.568;5.086;2022-11-04T08:18:00;9.30;99.90
26049;DHT22;13822;51.568;5.086;2022-11-04T08:23:02;9.30;99.90
26049;DHT22;13822;51.568;5.086;2022-11-04T08:28:04;9.40;99.90
26049;DHT22;13822;51.568;5.086;2022-11-04T08:33:06;9.40;99.90
26049;DHT22;13822;51.568;5.086;2022-11-04T08:38:08;9.40;99.90
26049;DHT22;13822;51.568;5.086;2022-11-04T08:43:10;9.50;99.90
26049;DHT22;13822;51.568;5.086;2022-11-04T08:48:12;9.50;99.90
26049;DHT22;13822;51.568;5.086;2022-11-04T08:53:14;9.50;99.90
26049;DHT22;13822;51.568;5.086;2022-11-04T08:58:17;9.60;99.90
26049;DHT22;13822;51.568;5.086;2022-11-04T09:03:19;9.70;99.90
26049;DHT22;13822;51.568;5.086;2022-11-04T09:08:21;9.70;99.90
26049;DHT22;13822;51.568;5.086;2022-11-04T09:13:23;9.80;99.90
26049;DHT22;13822;51.568;5.086;2022-11-04T09:18:25;9.90;99.90
26049;DHT22;13822;51.568;5.086;2022-11-04T09:23:27;10.00;99.90
26049;DHT22;13822;51.568;5.086;2022-11-04T09:28:29;10.10;99.90
26049;DHT22;13822;51.568;5.086;2022-11-04T09:33:31;10.10;99.90
26049;DHT22;13822;51.568;5.086;2022-11-04T09:38:34;10.20;99.90
26049;DHT22;13822;51.568;5.086;2022-11-04T09:49:21;10.40;99.90
26049;DHT22;13822;51.568;5.086;2022-11-04T09:54:24;10.40;99.90
26049;DHT22;13822;51.568;5.086;2022-11-04T09:59:30;10.50;99.90
26049;DHT22;13822;51.568;5.086;2022-11-04T10:09:57;10.60;99.90
26049;DHT22;13822;51.568;5.086;2022-11-04T10:20:51;10.90;99.90
26049;DHT22;13822;51.568;5.086;2022-11-04T10:25:57;10.90;99.90
26049;DHT22;13822;51.568;5.086;2022-11-04T10:31:18;10.90;99.90
26049;DHT22;13822;51.568;5.086;2022-11-04T10:36:20;11.00;99.90
26049;DHT22;13822;51.568;5.086;2022-11-04T10:41:25;11.10;99.90
26049;DHT22;13822;51.568;5.086;2022-11-04T10:51:45;11.20;99.90
26049;DHT22;13822;51.568;5.086;2022-11-04T10:56:50;11.20;99.90
26049;DHT22;13822;51.568;5.086;2022-11-04T11:01:54;11.30;99.90
26049;DHT22;13822;51.568;5.086;2022-11-04T11:06:59;11.40;99.90
26049;DHT22;13822;51.568;5.086;2022-11-04T11:17:35;11.50;99.90
26049;DHT22;13822;51.568;5.086;2022-11-04T11:22:43;11.60;99.90
26049;DHT22;13822;51.568;5.086;2022-11-04T11:28:08;11.70;99.90
26049;DHT22;13822;51.568;5.086;2022-11-04T11:33:17;11.80;99.90
26049;DHT22;13822;51.568;5.086;2022-11-04T11:38:24;11.90;99.90
26049;DHT22;13822;51.568;5.086;2022-11-04T11:43:31;12.00;99.90
26049;DHT22;13822;51.568;5.086;2022-11-04T11:48:38;12.00;99.90
26049;DHT22;13822;51.568;5.086;2022-11-04T11:53:55;12.00;99.90
26049;DHT22;13822;51.568;5.086;2022-11-04T11:59:07;12.00;99.90
26049;DHT22;13822;51.568;5.086;2022-11-04T12:04:39;11.90;99.90
26049;DHT22;13822;51.568;5.086;2022-11-04T12:47:45;12.40;99.90
26049;DHT22;13822;51.568;5.086;2022-11-04T12:58:31;12.40;99.90
26049;DHT22;13822;51.568;5.086;2022-11-04T13:08:51;12.50;99.90
26049;DHT22;13822;51.568;5.086;2022-11-04T13:14:08;12.50;99.90
26049;DHT22;13822;51.568;5.086;2022-11-04T13:19:24;12.50;99.90
26049;DHT22;13822;51.568;5.086;2022-11-04T13:24:32;12.40;99.90
26049;DHT22;13822;51.568;5.086;2022-11-04T13:29:36;12.40;99.90
26049;DHT22;13822;51.568;5.086;2022-11-04T13:40:40;12.40;99.90
26049;DHT22;13822;51.568;5.086;2022-11-04T13:45:47;12.30;99.90
26049;DHT22;13822;51.568;5.086;2022-11-04T13:50:58;12.20;99.90
26049;DHT22;13822;51.568;5.086;2022-11-04T13:56:02;12.30;99.90
26049;DHT22;13822;51.568;5.086;2022-11-04T14:27:44;12.10;99.90
26049;DHT22;13822;51.568;5.086;2022-11-04T14:32:50;11.90;99.90
26049;DHT22;13822;51.568;5.086;2022-11-04T14:38:15;11.60;99.90
26049;DHT22;13822;51.568;5.086;2022-11-04T14:43:27;11.40;99.90
26049;DHT22;13822;51.568;5.086;2022-11-04T14:48:32;11.20;99.90
26049;DHT22;13822;51.568;5.086;2022-11-04T14:53:35;11.10;99.90
26049;DHT22;13822;51.568;5.086;2022-11-04T14:58:38;11.00;99.90
26049;DHT22;13822;51.568;5.086;2022-11-04T15:03:40;10.90;99.90
26049;DHT22;13822;51.568;5.086;2022-11-04T15:09:01;10.90;99.90
26049;DHT22;13822;51.568;5.086;2022-11-04T15:14:10;10.90;99.90
26049;DHT22;13822;51.568;5.086;2022-11-04T15:19:39;10.90;99.90
26049;DHT22;13822;51.568;5.086;2022-11-04T15:24:40;10.90;99.90
26049;DHT22;13822;51.568;5.086;2022-11-04T15:29:59;10.90;99.90
26049;DHT22;13822;51.568;5.086;2022-11-04T15:35:03;10.90;99.90
26049;DHT22;13822;51.568;5.086;2022-11-04T15:40:05;10.90;99.90
26049;DHT22;13822;51.568;5.086;2022-11-04T15:50:46;11.00;99.90
26049;DHT22;13822;51.568;5.086;2022-11-04T15:55:53;10.90;99.90
26049;DHT22;13822;51.568;5.086;2022-11-04T16:00:56;10.90;99.90
26049;DHT22;13822;51.568;5.086;2022-11-04T16:05:58;11.00;99.90
